createdAt,value
2019-01-16T00:00:32.768Z,17.83
2019-01-16T00:03:02.804Z,17.93
2019-01-16T00:05:35.822Z,17.03
2019-01-16T00:08:14.904Z,18.10
2019-01-16T00:10:54.076Z,17.97
2019-01-16T00:13:40.263Z,17.20
2019-01-16T00:16:13.575Z,17.37
2019-01-16T00:18:50.044Z,18.93
2019-01-16T00:21:26.504Z,17.53
2019-01-16T00:24:12.591Z,17.93
2019-01-16T00:26:51.611Z,18.10
2019-01-16T00:29:27.900Z,18.20
2019-01-16T00:32:10.199Z,17.80
2019-01-16T00:34:52.286Z,18.50
2019-01-16T00:37:24.998Z,18.10
2019-01-16T00:40:01.037Z,18.10
2019-01-16T00:42:34.257Z,19.07
2019-01-16T00:45:10.096Z,18.90
2019-01-16T00:47:43.377Z,19.13
2019-01-16T00:50:29.993Z,19.20
2019-01-16T00:53:00.038Z,19.63
2019-01-16T00:55:44.748Z,20.47
2019-01-16T00:58:14.876Z,20.60
2019-01-16T01:00:47.697Z,20.60
2019-01-16T01:03:29.874Z,21.37
2019-01-16T01:05:59.890Z,21.10
2019-01-16T01:08:33.266Z,22.23
2019-01-16T01:11:09.444Z,22.30
2019-01-16T01:13:42.839Z,23.10
2019-01-16T01:16:19.629Z,22.37
2019-01-16T01:18:55.884Z,21.90
2019-01-16T01:21:41.157Z,22.60
2019-01-16T01:24:14.249Z,22.40
2019-01-16T01:26:50.307Z,22.43
2019-01-16T01:29:29.646Z,21.60
2019-01-16T01:31:59.963Z,21.80
2019-01-16T01:34:33.361Z,22.30
2019-01-16T01:37:09.840Z,21.27
2019-01-16T01:39:40.263Z,20.77
2019-01-16T01:42:10.306Z,21.83
2019-01-16T01:44:40.325Z,22.00
2019-01-16T01:47:26.389Z,22.37
2019-01-16T01:50:01.953Z,21.40
2019-01-16T01:52:48.045Z,21.07
2019-01-16T01:55:18.084Z,21.00
2019-01-16T01:57:54.004Z,22.17
2019-01-16T02:00:42.583Z,21.30
2019-01-16T02:03:12.632Z,21.70
2019-01-16T02:05:59.184Z,21.27
2019-01-16T02:08:41.594Z,21.00
2019-01-16T02:11:17.852Z,21.53
2019-01-16T02:13:59.826Z,21.60
2019-01-16T02:16:45.028Z,22.10
2019-01-16T02:19:21.489Z,20.13
2019-01-16T02:22:00.225Z,22.00
2019-01-16T02:24:32.927Z,20.93
2019-01-16T02:27:11.895Z,21.03
2019-01-16T02:29:56.904Z,21.90
2019-01-16T02:32:26.952Z,21.07
2019-01-16T02:35:13.213Z,21.67
2019-01-16T02:37:59.341Z,19.47
2019-01-16T02:40:29.419Z,20.30
2019-01-16T02:42:59.441Z,20.13
2019-01-16T02:45:45.694Z,21.23
2019-01-16T02:48:31.827Z,21.33
2019-01-16T02:51:02.169Z,20.13
2019-01-16T02:53:47.600Z,20.83
2019-01-16T02:56:26.767Z,19.77
2019-01-16T02:59:08.886Z,20.90
2019-01-16T03:01:41.318Z,19.57
2019-01-16T03:04:20.479Z,19.53
2019-01-16T03:06:56.608Z,18.97
2019-01-16T03:09:26.653Z,18.20
2019-01-16T03:12:03.120Z,17.90
2019-01-16T03:14:41.909Z,18.83
2019-01-16T03:17:11.938Z,18.57
2019-01-16T03:19:44.818Z,17.93
2019-01-16T03:22:30.152Z,17.87
2019-01-16T03:25:06.430Z,19.40
2019-01-16T03:27:36.456Z,17.57
2019-01-16T03:30:09.805Z,17.60
2019-01-16T03:32:56.283Z,18.33
2019-01-16T03:35:26.320Z,17.33
2019-01-16T03:37:56.644Z,16.87
2019-01-16T03:40:26.973Z,16.63
2019-01-16T03:42:57.292Z,16.63
2019-01-16T03:45:30.384Z,17.30
2019-01-16T03:48:12.689Z,16.40
2019-01-16T03:50:58.999Z,16.60
2019-01-16T03:53:35.047Z,17.00
2019-01-16T03:56:10.804Z,16.77
2019-01-16T03:58:57.314Z,16.30
2019-01-16T04:01:30.277Z,16.17
2019-01-16T04:04:12.189Z,15.50
2019-01-16T04:06:42.238Z,14.63
2019-01-16T04:09:15.390Z,14.40
2019-01-16T04:11:55.142Z,14.87
2019-01-16T04:14:25.168Z,14.57
2019-01-16T04:16:58.142Z,14.60
2019-01-16T04:19:37.582Z,14.73
2019-01-16T04:22:10.364Z,14.83
2019-01-16T04:24:40.411Z,14.20
2019-01-16T04:27:19.307Z,13.40
2019-01-16T04:29:49.626Z,14.47
2019-01-16T04:32:22.069Z,13.20
2019-01-16T04:35:08.716Z,14.17
2019-01-16T04:37:38.743Z,13.60
2019-01-16T04:40:26.262Z,13.83
2019-01-16T04:43:02.028Z,13.80
2019-01-16T04:45:41.555Z,13.37
2019-01-16T04:48:23.657Z,13.00
2019-01-16T04:50:56.426Z,12.93
2019-01-16T04:53:29.833Z,13.90
2019-01-16T04:56:02.402Z,12.73
2019-01-16T04:58:35.205Z,13.40
2019-01-16T05:01:21.435Z,12.90
2019-01-16T05:03:51.485Z,12.37
2019-01-16T05:06:21.515Z,12.00
2019-01-16T05:08:51.847Z,12.27
2019-01-16T05:11:27.492Z,12.10
2019-01-16T05:14:03.561Z,11.97
2019-01-16T05:16:45.531Z,11.50
2019-01-16T05:19:15.574Z,11.20
2019-01-16T05:21:48.002Z,11.57
2019-01-16T05:24:21.247Z,11.13
2019-01-16T05:26:54.539Z,10.90
2019-01-16T05:29:36.742Z,11.47
2019-01-16T05:32:19.047Z,11.40
2019-01-16T05:35:05.212Z,11.00
2019-01-16T05:37:35.258Z,11.90
2019-01-16T05:40:09.384Z,11.70
2019-01-16T05:42:48.398Z,10.70
2019-01-16T05:45:24.247Z,11.00
2019-01-16T05:48:00.084Z,10.00
2019-01-16T05:50:42.265Z,11.23
2019-01-16T05:53:12.294Z,10.33
2019-01-16T05:55:51.540Z,11.60
2019-01-16T05:58:26.988Z,11.37
2019-01-16T06:01:13.507Z,11.80
2019-01-16T06:03:43.536Z,11.33
2019-01-16T06:06:16.454Z,11.20
2019-01-16T06:08:46.561Z,11.27
2019-01-16T06:11:19.277Z,11.93
2019-01-16T06:14:05.450Z,10.50
2019-01-16T06:16:35.476Z,11.27
2019-01-16T06:19:14.920Z,11.10
2019-01-16T06:21:54.098Z,10.90
2019-01-16T06:24:26.651Z,10.53
2019-01-16T06:26:59.865Z,11.57
2019-01-16T06:29:32.845Z,11.00
2019-01-16T06:32:17.635Z,10.87
2019-01-16T06:34:53.680Z,11.00
2019-01-16T06:37:33.117Z,11.10
2019-01-16T06:40:06.202Z,10.40
2019-01-16T06:42:36.249Z,10.93
2019-01-16T06:45:14.227Z,10.43
2019-01-16T06:47:50.418Z,10.43
2019-01-16T06:50:20.448Z,10.83
2019-01-16T06:53:02.711Z,11.40
2019-01-16T06:55:38.404Z,13.30
2019-01-16T06:58:10.854Z,10.60
2019-01-16T07:00:40.888Z,10.23
2019-01-16T07:03:11.185Z,10.60
2019-01-16T07:05:43.608Z,10.50
2019-01-16T07:08:19.196Z,10.07
2019-01-16T07:11:05.813Z,10.53
2019-01-16T07:13:38.592Z,9.80
2019-01-16T07:16:17.662Z,9.87
2019-01-16T07:19:03.845Z,10.43
2019-01-16T07:21:36.909Z,11.53
2019-01-16T07:24:19.007Z,10.83
2019-01-16T07:26:49.327Z,10.70
2019-01-16T07:29:25.045Z,10.87
2019-01-16T07:32:11.477Z,10.97
2019-01-16T07:34:44.260Z,10.10
2019-01-16T07:37:20.509Z,9.50
2019-01-16T07:40:07.341Z,9.60
2019-01-16T07:42:49.388Z,9.40
2019-01-16T07:45:37.857Z,9.63
2019-01-16T07:48:14.459Z,10.20
2019-01-16T07:50:47.448Z,11.90
2019-01-16T07:53:29.134Z,9.80
2019-01-16T07:56:02.015Z,10.77
2019-01-16T07:58:32.068Z,10.37
2019-01-16T08:01:02.116Z,11.13
2019-01-16T08:03:32.159Z,11.13
2019-01-16T08:06:02.189Z,11.63
2019-01-16T08:08:41.204Z,12.23
2019-01-16T08:11:20.358Z,10.40
2019-01-16T08:14:06.295Z,12.53
2019-01-16T08:16:39.092Z,10.73
2019-01-16T08:19:15.595Z,11.67
2019-01-16T08:22:01.881Z,11.80
2019-01-16T08:24:31.912Z,11.87
2019-01-16T08:27:07.972Z,12.23
2019-01-16T08:29:38.252Z,13.17
2019-01-16T08:32:23.582Z,11.77
2019-01-16T08:34:56.872Z,13.80
2019-01-16T08:37:45.314Z,13.73
2019-01-16T08:40:33.614Z,15.00
2019-01-16T08:43:06.657Z,14.80
2019-01-16T08:45:39.192Z,15.53
2019-01-16T08:48:25.326Z,13.70
2019-01-16T08:51:01.894Z,14.50
2019-01-16T08:53:40.845Z,15.57
2019-01-16T08:56:19.730Z,15.40
2019-01-16T08:59:05.882Z,14.33
2019-01-16T09:01:39.233Z,16.87
2019-01-16T09:04:21.842Z,15.97
2019-01-16T09:06:57.649Z,14.60
2019-01-16T09:09:27.685Z,16.00
2019-01-16T09:12:14.079Z,16.50
2019-01-16T09:14:46.857Z,15.27
2019-01-16T09:17:16.877Z,15.13
2019-01-16T09:19:47.248Z,14.53
2019-01-16T09:22:32.937Z,14.97
2019-01-16T09:25:05.481Z,15.00
2019-01-16T09:27:47.558Z,15.97
2019-01-16T09:30:20.522Z,14.90
2019-01-16T09:32:56.680Z,14.50
2019-01-16T09:35:36.052Z,14.93
2019-01-16T09:38:06.160Z,14.80
2019-01-16T09:40:51.487Z,14.70
2019-01-16T09:43:24.401Z,14.43
2019-01-16T09:45:54.461Z,14.00
2019-01-16T09:48:24.818Z,14.80
2019-01-16T09:50:54.867Z,15.10
2019-01-16T09:53:37.340Z,15.60
2019-01-16T09:56:07.696Z,14.23
2019-01-16T09:58:53.980Z,15.23
2019-01-16T10:01:24.103Z,14.70
2019-01-16T10:03:54.126Z,15.13
2019-01-16T10:06:24.433Z,16.30
2019-01-16T10:08:54.759Z,14.93
2019-01-16T10:11:40.134Z,15.43
2019-01-16T10:14:15.884Z,15.87
2019-01-16T10:16:54.610Z,14.90
2019-01-16T10:19:40.626Z,15.07
2019-01-16T10:22:22.626Z,15.60
2019-01-16T10:24:55.588Z,14.67
2019-01-16T10:27:40.503Z,16.30
2019-01-16T10:30:19.479Z,14.80
2019-01-16T10:32:49.498Z,15.10
2019-01-16T10:35:19.923Z,14.30
2019-01-16T10:38:05.035Z,13.50
2019-01-16T10:40:35.453Z,14.10
2019-01-16T10:43:22.030Z,13.43
2019-01-16T10:46:08.152Z,15.13
2019-01-16T10:48:49.703Z,14.70
2019-01-16T10:51:32.623Z,14.10
2019-01-16T10:54:18.212Z,14.90
2019-01-16T10:56:54.272Z,13.97
2019-01-16T10:59:27.156Z,13.33
2019-01-16T11:01:57.179Z,13.67
2019-01-16T11:04:29.880Z,13.70
2019-01-16T11:07:15.126Z,14.33
2019-01-16T11:09:48.324Z,13.70
2019-01-16T11:12:21.712Z,12.30
2019-01-16T11:15:07.429Z,13.70
2019-01-16T11:17:54.215Z,11.43
2019-01-16T11:20:24.257Z,13.33
2019-01-16T11:23:10.031Z,12.90
2019-01-16T11:25:42.523Z,12.80
2019-01-16T11:28:31.006Z,12.60
2019-01-16T11:31:16.423Z,13.10
2019-01-16T11:33:48.743Z,12.20
2019-01-16T11:36:24.375Z,14.13
2019-01-16T11:38:54.539Z,12.50
2019-01-16T11:41:24.893Z,13.00
2019-01-16T11:44:11.394Z,13.53
2019-01-16T11:46:44.784Z,13.37
2019-01-16T11:49:23.712Z,13.47
2019-01-16T11:52:02.747Z,13.40
2019-01-16T11:54:33.070Z,13.40
2019-01-16T11:57:03.095Z,12.47
2019-01-16T11:59:42.246Z,12.67
2019-01-16T12:02:12.546Z,12.43
2019-01-16T12:04:48.858Z,12.50
2019-01-16T12:07:33.560Z,14.10
2019-01-16T12:10:18.733Z,12.90
2019-01-16T12:13:05.460Z,12.60
2019-01-16T12:15:35.767Z,13.57
2019-01-16T12:18:15.194Z,12.17
2019-01-16T12:20:45.535Z,13.30
2019-01-16T12:23:30.706Z,12.50
2019-01-16T12:26:17.007Z,12.07
2019-01-16T12:28:53.017Z,12.87
2019-01-16T12:31:25.746Z,12.37
2019-01-16T12:33:56.083Z,12.10
2019-01-16T12:36:38.063Z,12.73
2019-01-16T12:39:22.110Z,12.30
2019-01-16T12:41:59.544Z,12.97
2019-01-16T12:44:32.591Z,12.30
2019-01-16T12:47:05.486Z,12.60
2019-01-16T12:49:36.213Z,13.07
2019-01-16T12:52:22.870Z,11.90
2019-01-16T12:55:02.183Z,12.17
2019-01-16T12:57:41.181Z,12.03
2019-01-16T13:00:14.428Z,13.40
2019-01-16T13:02:47.235Z,12.93
2019-01-16T13:05:17.745Z,12.87
2019-01-16T13:07:47.773Z,12.77
2019-01-16T13:10:18.255Z,12.07
2019-01-16T13:12:50.984Z,12.30
2019-01-16T13:15:21.439Z,12.73
2019-01-16T13:17:54.632Z,12.63
2019-01-16T13:20:24.657Z,13.40
2019-01-16T13:22:57.129Z,11.70
2019-01-16T13:25:27.163Z,11.60
2019-01-16T13:27:57.470Z,12.17
2019-01-16T13:30:33.230Z,12.27
2019-01-16T13:33:06.384Z,11.87
2019-01-16T13:35:51.370Z,11.60
2019-01-16T13:38:30.192Z,12.23
2019-01-16T13:41:06.365Z,11.60
2019-01-16T13:43:39.405Z,11.50
2019-01-16T13:46:21.459Z,12.30
2019-01-16T13:48:54.380Z,12.60
2019-01-16T13:51:27.435Z,11.33
2019-01-16T13:54:13.667Z,11.10
2019-01-16T13:56:44.053Z,10.67
2019-01-16T13:59:26.421Z,10.70
2019-01-16T14:02:05.473Z,10.90
2019-01-16T14:04:38.452Z,10.90
2019-01-16T14:07:08.501Z,11.03
2019-01-16T14:09:41.214Z,11.70
2019-01-16T14:12:17.327Z,10.57
2019-01-16T14:14:50.084Z,10.40
2019-01-16T14:17:22.897Z,11.00
2019-01-16T14:19:58.365Z,11.10
2019-01-16T14:22:28.666Z,11.60
2019-01-16T14:25:16.940Z,10.40
2019-01-16T14:27:59.734Z,11.77
2019-01-16T14:30:33.222Z,10.43
2019-01-16T14:33:03.266Z,10.60
2019-01-16T14:35:33.306Z,10.63
2019-01-16T14:38:18.386Z,9.80
2019-01-16T14:41:00.339Z,10.23
2019-01-16T14:43:30.864Z,10.97
2019-01-16T14:46:01.183Z,10.77
2019-01-16T14:48:31.294Z,10.80
2019-01-16T14:51:01.337Z,10.13
2019-01-16T14:53:37.480Z,10.00
2019-01-16T14:56:24.206Z,10.93
2019-01-16T14:58:57.688Z,10.30
2019-01-16T15:01:28.028Z,11.33
2019-01-16T15:04:04.165Z,9.90
2019-01-16T15:06:34.419Z,9.37
2019-01-16T15:09:13.427Z,10.53
2019-01-16T15:11:43.864Z,10.93
2019-01-16T15:14:16.929Z,9.80
2019-01-16T15:17:03.073Z,9.87
2019-01-16T15:19:33.130Z,10.40
2019-01-16T15:22:06.358Z,10.37
2019-01-16T15:24:34.916Z,11.03
2019-01-16T15:27:13.726Z,10.83
2019-01-16T15:29:47.046Z,10.40
2019-01-16T15:32:33.167Z,10.40
2019-01-16T15:35:05.927Z,10.73
2019-01-16T15:37:38.631Z,10.57
2019-01-16T15:40:27.390Z,10.53
2019-01-16T15:42:57.420Z,11.07
2019-01-16T15:45:36.876Z,9.90
2019-01-16T15:48:19.410Z,10.03
2019-01-16T15:51:08.988Z,10.50
2019-01-16T15:53:48.180Z,9.67
2019-01-16T15:56:34.320Z,10.37
2019-01-16T15:59:04.355Z,10.50
2019-01-16T16:01:37.099Z,9.73
2019-01-16T16:04:15.914Z,9.77
2019-01-16T16:06:48.569Z,9.37
2019-01-16T16:09:18.593Z,9.20
2019-01-16T16:11:48.719Z,9.53
2019-01-16T16:14:19.120Z,9.77
2019-01-16T16:16:51.945Z,9.63
2019-01-16T16:19:29.689Z,10.10
2019-01-16T16:22:09.620Z,10.80
2019-01-16T16:24:40.064Z,10.63
2019-01-16T16:27:26.367Z,10.20
2019-01-16T16:29:59.327Z,10.57
2019-01-16T16:32:29.394Z,10.70
2019-01-16T16:35:14.734Z,11.30
2019-01-16T16:38:03.018Z,10.60
2019-01-16T16:40:33.055Z,10.13
2019-01-16T16:43:06.034Z,10.63
2019-01-16T16:45:36.058Z,11.33
2019-01-16T16:48:15.556Z,10.70
2019-01-16T16:50:51.506Z,10.57
2019-01-16T16:53:30.400Z,10.13
2019-01-16T16:56:00.429Z,11.50
2019-01-16T16:58:46.332Z,11.10
2019-01-16T17:01:31.434Z,9.90
2019-01-16T17:04:17.561Z,10.90
2019-01-16T17:06:50.325Z,11.53
2019-01-16T17:09:20.358Z,10.43
2019-01-16T17:11:59.527Z,11.73
2019-01-16T17:14:32.245Z,10.40
2019-01-16T17:17:11.399Z,10.93
2019-01-16T17:19:53.417Z,11.67
2019-01-16T17:22:40.261Z,11.13
2019-01-16T17:25:23.339Z,11.77
2019-01-16T17:28:09.694Z,11.30
2019-01-16T17:30:39.894Z,10.73
2019-01-16T17:33:19.135Z,11.10
2019-01-16T17:35:54.655Z,11.23
2019-01-16T17:38:41.189Z,11.83
2019-01-16T17:41:16.957Z,11.80
2019-01-16T17:44:03.176Z,11.73
2019-01-16T17:46:39.122Z,10.53
2019-01-16T17:49:12.189Z,11.47
2019-01-16T17:51:42.237Z,11.00
2019-01-16T17:54:14.975Z,10.73
2019-01-16T17:56:48.140Z,11.43
2019-01-16T17:59:23.966Z,12.30
2019-01-16T18:01:54.071Z,15.30
2019-01-16T18:04:26.873Z,13.63
2019-01-16T18:07:08.998Z,12.80
2019-01-16T18:09:42.061Z,12.33
2019-01-16T18:12:18.086Z,11.90
2019-01-16T18:14:54.143Z,11.27
2019-01-16T18:17:26.577Z,12.53
2019-01-16T18:20:03.103Z,12.63
2019-01-16T18:22:45.421Z,12.60
2019-01-16T18:25:15.733Z,12.83
2019-01-16T18:27:45.806Z,13.70
2019-01-16T18:30:29.983Z,12.50
2019-01-16T18:33:02.663Z,12.27
2019-01-16T18:35:38.969Z,11.67
2019-01-16T18:38:27.175Z,12.33
2019-01-16T18:40:57.219Z,12.77
2019-01-16T18:43:27.252Z,13.47
2019-01-16T18:45:57.666Z,13.03
2019-01-16T18:48:36.590Z,13.00
2019-01-16T18:51:16.311Z,12.43
2019-01-16T18:53:55.300Z,13.10
2019-01-16T18:56:30.952Z,13.10
2019-01-16T18:59:10.152Z,13.90
2019-01-16T19:01:57.994Z,12.53
2019-01-16T19:04:28.006Z,12.87
2019-01-16T19:07:01.019Z,13.03
2019-01-16T19:09:31.047Z,13.80
2019-01-16T19:12:04.233Z,13.37
2019-01-16T19:14:34.592Z,13.57
2019-01-16T19:17:16.924Z,12.50
2019-01-16T19:20:02.017Z,13.47
2019-01-16T19:22:35.070Z,12.50
2019-01-16T19:25:18.796Z,13.17
2019-01-16T19:27:56.970Z,13.13
2019-01-16T19:30:44.025Z,14.07
2019-01-16T19:33:23.446Z,13.43
2019-01-16T19:35:56.400Z,14.30
2019-01-16T19:38:41.447Z,14.13
2019-01-16T19:41:24.024Z,13.47
2019-01-16T19:43:54.239Z,14.03
2019-01-16T19:46:27.530Z,12.10
2019-01-16T19:49:06.324Z,13.33
2019-01-16T19:51:42.567Z,13.67
2019-01-16T19:54:29.544Z,13.13
2019-01-16T19:57:02.235Z,13.63
2019-01-16T19:59:38.136Z,13.50
2019-01-16T20:02:14.305Z,12.87
2019-01-16T20:04:50.084Z,13.00
2019-01-16T20:07:28.744Z,12.60
2019-01-16T20:09:58.801Z,12.23
2019-01-16T20:12:31.367Z,13.60
2019-01-16T20:15:16.369Z,12.23
2019-01-16T20:18:04.355Z,13.00
2019-01-16T20:20:46.532Z,13.07
2019-01-16T20:23:16.571Z,16.53
2019-01-16T20:25:49.381Z,14.70
2019-01-16T20:28:19.439Z,14.00
2019-01-16T20:30:55.540Z,15.13
2019-01-16T20:33:25.664Z,13.53
2019-01-16T20:35:55.818Z,13.40
2019-01-16T20:38:42.289Z,14.20
2019-01-16T20:41:12.383Z,14.20
2019-01-16T20:43:48.527Z,13.80
2019-01-16T20:46:26.121Z,13.97
2019-01-16T20:48:56.165Z,14.17
2019-01-16T20:51:26.199Z,15.77
2019-01-16T20:53:58.670Z,14.70
2019-01-16T20:56:28.765Z,14.90
2019-01-16T20:59:07.462Z,15.80
2019-01-16T21:01:49.540Z,15.50
2019-01-16T21:04:28.329Z,14.20
2019-01-16T21:07:05.101Z,14.10
2019-01-16T21:09:37.870Z,14.30
2019-01-16T21:12:07.988Z,13.10
2019-01-16T21:14:47.012Z,13.27
2019-01-16T21:17:19.692Z,13.87
2019-01-16T21:19:49.735Z,14.90
2019-01-16T21:22:35.846Z,15.50
2019-01-16T21:25:15.987Z,14.00
2019-01-16T21:27:58.265Z,15.70
2019-01-16T21:30:40.860Z,15.93
2019-01-16T21:33:27.671Z,14.43
2019-01-16T21:35:57.706Z,14.90
2019-01-16T21:38:37.219Z,14.70
2019-01-16T21:41:23.134Z,14.60
2019-01-16T21:43:55.876Z,14.50
2019-01-16T21:46:42.504Z,14.50
2019-01-16T21:49:15.489Z,15.10
2019-01-16T21:51:49.305Z,14.73
2019-01-16T21:54:34.024Z,14.60
2019-01-16T21:57:04.254Z,14.70
2019-01-16T21:59:34.298Z,14.83
2019-01-16T22:02:04.646Z,15.67
2019-01-16T22:04:35.056Z,14.87
2019-01-16T22:07:11.500Z,15.10
2019-01-16T22:09:44.086Z,16.17
2019-01-16T22:12:14.858Z,15.37
2019-01-16T22:14:44.874Z,15.33
2019-01-16T22:17:20.811Z,16.50
2019-01-16T22:19:51.137Z,15.60
2019-01-16T22:22:21.467Z,15.77
2019-01-16T22:24:51.890Z,15.20
2019-01-16T22:27:34.196Z,15.60
2019-01-16T22:30:07.486Z,15.13
2019-01-16T22:32:37.524Z,16.33
2019-01-16T22:35:23.632Z,16.63
2019-01-16T22:37:53.676Z,15.83
2019-01-16T22:40:26.906Z,16.70
2019-01-16T22:42:57.159Z,16.30
2019-01-16T22:45:27.280Z,16.93
2019-01-16T22:48:12.439Z,17.07
2019-01-16T22:50:45.659Z,16.97
2019-01-16T22:53:24.612Z,17.70
2019-01-16T22:55:54.652Z,16.03
2019-01-16T22:58:27.789Z,16.90
2019-01-16T23:00:58.245Z,18.17
2019-01-16T23:03:44.530Z,18.17
2019-01-16T23:06:14.549Z,18.87
2019-01-16T23:08:44.854Z,18.53
2019-01-16T23:11:29.717Z,17.60
2019-01-16T23:13:59.762Z,18.80
2019-01-16T23:16:44.885Z,17.50
2019-01-16T23:19:15.210Z,19.33
2019-01-16T23:21:45.252Z,18.60
2019-01-16T23:24:18.308Z,17.50
2019-01-16T23:26:48.764Z,18.00
2019-01-16T23:29:18.876Z,19.30
2019-01-16T23:31:51.840Z,19.03
2019-01-16T23:34:38.034Z,19.23
2019-01-16T23:37:13.841Z,18.73
2019-01-16T23:39:49.848Z,19.17
2019-01-16T23:42:28.992Z,18.00
2019-01-16T23:45:04.721Z,18.17
2019-01-16T23:47:44.068Z,18.30
2019-01-16T23:50:20.128Z,19.20
2019-01-16T23:53:02.131Z,18.20
2019-01-16T23:55:35.111Z,19.63
2019-01-16T23:58:14.351Z,19.30
